Harlech, United Kingdom
Current Conditions -  °F | °C
As of 7:50 AM on Sunday 21 Dec 2014 (Local Time) from EGOV Reporting Station
Haze Haze  
Wind Chill: 50°   Ceiling: 4200
Heat Index: 50°   Visibility: 6mi
Dew Point: 46°   Wind: 29mph
Humidity: 87%   Direction: 220°SW
Pressure: 30.18"   Gusts: 40mph
Location:  52.86°N, 4.11°W
Report Text: EGOV 210750Z AUTO 22025G35KT 9000 HZ SCT011/// BKN042/// 10/08 Q1022
Loading
Personal Weather Stations






























Interactive Weather Map New forecast layout! Learn more

10-Day Weather Forecast

Advertisements
Track Severe Weather on mobile